EWG485 EDDB-EDDH
Flight info
| Callsign | EWG485 |
|---|---|
| Flight time | N/A |
| Altitude | 22000 |
| Route | SUKIP3A SUKIP M748 RARUP RARUP3P |
| Aircraft | A319/M-SDE3FGHIRWY/LB1 |
Departure
| Time | N/A |
|---|---|
| Airport | Berlin Brandenburg Airport (EDDB) |
Arrival
| Time | 2026-04-26 14:03 |
|---|---|
| Airport | Hamburg Helmut Schmidt Airport (EDDH) |
| Time | Latitude | Longitude | Altitude | Speed | Heading |
|---|---|---|---|---|---|
| 2026-04-26 13:26 | 52.32731 | 12.63215 | 18807 ft | 364 kts | 275° |
| 2026-04-26 13:26 | 52.32812 | 12.59059 | 19375 ft | 367 kts | 275° |
| 2026-04-26 13:26 | 52.32892 | 12.54874 | 19944 ft | 370 kts | 275° |
| 2026-04-26 13:27 | 52.32968 | 12.50652 | 20522 ft | 373 kts | 275° |
| 2026-04-26 13:27 | 52.33044 | 12.46392 | 21072 ft | 376 kts | 274° |
| 2026-04-26 13:27 | 52.33237 | 12.42133 | 21575 ft | 377 kts | 281° |
| 2026-04-26 13:27 | 52.33861 | 12.37960 | 22077 ft | 378 kts | 290° |
| 2026-04-26 13:28 | 52.34909 | 12.34021 | 22281 ft | 379 kts | 299° |
| 2026-04-26 13:28 | 52.36390 | 12.30385 | 22314 ft | 387 kts | 309° |
| 2026-04-26 13:28 | 52.38256 | 12.27204 | 22314 ft | 388 kts | 318° |
| 2026-04-26 13:28 | 52.40293 | 12.24306 | 22312 ft | 388 kts | 318° |
| 2026-04-26 13:29 | 52.42326 | 12.21388 | 22316 ft | 388 kts | 317° |
| 2026-04-26 13:29 | 52.43666 | 12.19453 | 22315 ft | 388 kts | 317° |
| 2026-04-26 13:29 | 52.46376 | 12.15523 | 22315 ft | 389 kts | 317° |
| 2026-04-26 13:29 | 52.48397 | 12.12582 | 22314 ft | 389 kts | 317° |
| 2026-04-26 13:30 | 52.50417 | 12.09643 | 22316 ft | 388 kts | 317° |
| 2026-04-26 13:30 | 52.52442 | 12.06701 | 22317 ft | 388 kts | 317° |
| 2026-04-26 13:30 | 52.54466 | 12.03759 | 22300 ft | 389 kts | 317° |
| 2026-04-26 13:30 | 52.56493 | 12.00810 | 22297 ft | 389 kts | 317° |
| 2026-04-26 13:31 | 52.58520 | 11.97857 | 22295 ft | 390 kts | 317° |
| 2026-04-26 13:31 | 52.60550 | 11.94895 | 22295 ft | 390 kts | 317° |
| 2026-04-26 13:31 | 52.62583 | 11.91931 | 22294 ft | 391 kts | 317° |
| 2026-04-26 13:31 | 52.64638 | 11.89005 | 22298 ft | 391 kts | 319° |
| 2026-04-26 13:32 | 52.66764 | 11.86200 | 22321 ft | 391 kts | 321° |
| 2026-04-26 13:32 | 52.68932 | 11.83484 | 22323 ft | 391 kts | 322° |
| 2026-04-26 13:32 | 52.71114 | 11.80811 | 22324 ft | 391 kts | 322° |
| 2026-04-26 13:32 | 52.73297 | 11.78138 | 22323 ft | 391 kts | 322° |
| 2026-04-26 13:33 | 52.75471 | 11.75451 | 22322 ft | 390 kts | 321° |
| 2026-04-26 13:33 | 52.77634 | 11.72739 | 22321 ft | 390 kts | 321° |
| 2026-04-26 13:33 | 52.79784 | 11.70011 | 22319 ft | 390 kts | 321° |
| 2026-04-26 13:33 | 52.81928 | 11.67267 | 22317 ft | 390 kts | 321° |
| 2026-04-26 13:34 | 52.84070 | 11.64516 | 22302 ft | 390 kts | 320° |
| 2026-04-26 13:34 | 52.86217 | 11.61756 | 22298 ft | 391 kts | 320° |
| 2026-04-26 13:34 | 52.88366 | 11.58995 | 22294 ft | 391 kts | 320° |
| 2026-04-26 13:34 | 52.89794 | 11.57164 | 22297 ft | 392 kts | 320° |
| 2026-04-26 13:35 | 52.92678 | 11.53473 | 22300 ft | 392 kts | 320° |
| 2026-04-26 13:35 | 52.94836 | 11.50709 | 22299 ft | 392 kts | 320° |
| 2026-04-26 13:35 | 52.96994 | 11.47940 | 22302 ft | 392 kts | 320° |
| 2026-04-26 13:35 | 52.99151 | 11.45171 | 22301 ft | 392 kts | 320° |
| 2026-04-26 13:36 | 53.01310 | 11.42389 | 22302 ft | 392 kts | 320° |
| 2026-04-26 13:36 | 53.03465 | 11.39604 | 22305 ft | 393 kts | 320° |
| 2026-04-26 13:36 | 53.05622 | 11.36818 | 22304 ft | 393 kts | 320° |
| 2026-04-26 13:36 | 53.07780 | 11.34033 | 22304 ft | 393 kts | 320° |
| 2026-04-26 13:37 | 53.09941 | 11.31251 | 22304 ft | 393 kts | 320° |
| 2026-04-26 13:37 | 53.12100 | 11.28478 | 22305 ft | 393 kts | 321° |
| 2026-04-26 13:37 | 53.14304 | 11.25776 | 22290 ft | 394 kts | 322° |
| 2026-04-26 13:37 | 53.16553 | 11.23169 | 22294 ft | 395 kts | 323° |
| 2026-04-26 13:38 | 53.18831 | 11.20604 | 22290 ft | 395 kts | 324° |
| 2026-04-26 13:38 | 53.21092 | 11.18073 | 22100 ft | 387 kts | 324° |
| 2026-04-26 13:38 | 53.23288 | 11.15601 | 21904 ft | 374 kts | 323° |
| 2026-04-26 13:38 | 53.25401 | 11.13193 | 21772 ft | 361 kts | 323° |
| 2026-04-26 13:39 | 53.27422 | 11.10861 | 21636 ft | 344 kts | 323° |
| 2026-04-26 13:39 | 53.29333 | 11.08640 | 21377 ft | 327 kts | 322° |
| 2026-04-26 13:39 | 53.31173 | 11.06494 | 20816 ft | 319 kts | 322° |
| 2026-04-26 13:39 | 53.32979 | 11.04385 | 20181 ft | 315 kts | 322° |
| 2026-04-26 13:40 | 53.34767 | 11.02296 | 19548 ft | 312 kts | 322° |
| 2026-04-26 13:40 | 53.36535 | 11.00228 | 18920 ft | 309 kts | 322° |
| 2026-04-26 13:40 | 53.38285 | 10.98179 | 18268 ft | 306 kts | 323° |
| 2026-04-26 13:40 | 53.40009 | 10.96165 | 17744 ft | 300 kts | 323° |
| 2026-04-26 13:41 | 53.41719 | 10.94164 | 17311 ft | 299 kts | 322° |
| 2026-04-26 13:41 | 53.43381 | 10.91967 | 17146 ft | 308 kts | 319° |
| 2026-04-26 13:41 | 53.45015 | 10.89688 | 16884 ft | 305 kts | 318° |
| 2026-04-26 13:41 | 53.46666 | 10.87331 | 16616 ft | 316 kts | 318° |
| 2026-04-26 13:42 | 53.48345 | 10.84915 | 16362 ft | 319 kts | 318° |
| 2026-04-26 13:42 | 53.50029 | 10.82492 | 16110 ft | 318 kts | 318° |
| 2026-04-26 13:42 | 53.51141 | 10.80893 | 15958 ft | 317 kts | 318° |
| 2026-04-26 13:42 | 53.53374 | 10.77682 | 15630 ft | 315 kts | 318° |
| 2026-04-26 13:43 | 53.54477 | 10.76099 | 15458 ft | 315 kts | 318° |
| 2026-04-26 13:43 | 53.56137 | 10.73719 | 15217 ft | 313 kts | 319° |
| 2026-04-26 13:43 | 53.57845 | 10.71270 | 14981 ft | 336 kts | 319° |
| 2026-04-26 13:43 | 53.59664 | 10.68654 | 14732 ft | 348 kts | 319° |
| 2026-04-26 13:44 | 53.61515 | 10.65991 | 14489 ft | 350 kts | 319° |
| 2026-04-26 13:44 | 53.63422 | 10.63451 | 13925 ft | 352 kts | 327° |
| 2026-04-26 13:44 | 53.65694 | 10.61905 | 12924 ft | 353 kts | 347° |
| 2026-04-26 13:44 | 53.68124 | 10.61713 | 11974 ft | 349 kts | 1° |
| 2026-04-26 13:45 | 53.70510 | 10.61953 | 11372 ft | 334 kts | 1° |
| 2026-04-26 13:45 | 53.72741 | 10.62183 | 11245 ft | 307 kts | 1° |
| 2026-04-26 13:45 | 53.74798 | 10.62393 | 11056 ft | 287 kts | 0° |
| 2026-04-26 13:45 | 53.76755 | 10.62582 | 10635 ft | 278 kts | 0° |
| 2026-04-26 13:46 | 53.78667 | 10.62761 | 10353 ft | 273 kts | 0° |
| 2026-04-26 13:46 | 53.80552 | 10.62931 | 10185 ft | 270 kts | 0° |
| 2026-04-26 13:46 | 53.82424 | 10.62947 | 10049 ft | 268 kts | 351° |
| 2026-04-26 13:46 | 53.84210 | 10.62159 | 9912 ft | 265 kts | 335° |
| 2026-04-26 13:47 | 53.85800 | 10.60585 | 9596 ft | 266 kts | 321° |
| 2026-04-26 13:47 | 53.87154 | 10.58411 | 8999 ft | 272 kts | 306° |
| 2026-04-26 13:47 | 53.87922 | 10.55528 | 8611 ft | 270 kts | 283° |
| 2026-04-26 13:47 | 53.87915 | 10.52370 | 8045 ft | 271 kts | 258° |
| 2026-04-26 13:48 | 53.87195 | 10.49411 | 7438 ft | 273 kts | 246° |
| 2026-04-26 13:48 | 53.86385 | 10.46500 | 7127 ft | 271 kts | 251° |
| 2026-04-26 13:48 | 53.86172 | 10.43419 | 6863 ft | 262 kts | 279° |
| 2026-04-26 13:48 | 53.86848 | 10.40604 | 6516 ft | 260 kts | 307° |
| 2026-04-26 13:49 | 53.88115 | 10.38420 | 6166 ft | 260 kts | 320° |
| 2026-04-26 13:49 | 53.89568 | 10.36586 | 5813 ft | 261 kts | 331° |
| 2026-04-26 13:49 | 53.91315 | 10.35865 | 5490 ft | 262 kts | 0° |
| 2026-04-26 13:49 | 53.93064 | 10.36681 | 5119 ft | 264 kts | 30° |
| 2026-04-26 13:50 | 53.94400 | 10.38811 | 4768 ft | 266 kts | 52° |
| 2026-04-26 13:50 | 53.95459 | 10.41393 | 4407 ft | 267 kts | 54° |
| 2026-04-26 13:50 | 53.96543 | 10.43942 | 4101 ft | 265 kts | 53° |
| 2026-04-26 13:50 | 53.97628 | 10.46470 | 4000 ft | 265 kts | 54° |
| 2026-04-26 13:51 | 53.98709 | 10.49005 | 4006 ft | 263 kts | 54° |
| 2026-04-26 13:51 | 53.99526 | 10.51667 | 4002 ft | 249 kts | 76° |
| 2026-04-26 13:51 | 53.99634 | 10.54501 | 4005 ft | 234 kts | 98° |
| 2026-04-26 13:51 | 53.99188 | 10.57078 | 4014 ft | 225 kts | 117° |
| 2026-04-26 13:52 | 53.98297 | 10.59228 | 4010 ft | 223 kts | 136° |
| 2026-04-26 13:52 | 53.97059 | 10.60763 | 4011 ft | 220 kts | 155° |
| 2026-04-26 13:52 | 53.95607 | 10.61537 | 4009 ft | 219 kts | 174° |
| 2026-04-26 13:52 | 53.94098 | 10.61474 | 4010 ft | 217 kts | 192° |
| 2026-04-26 13:53 | 53.92688 | 10.60603 | 4010 ft | 216 kts | 211° |
| 2026-04-26 13:53 | 53.91503 | 10.58993 | 4017 ft | 222 kts | 230° |
| 2026-04-26 13:53 | 53.90685 | 10.56813 | 4009 ft | 223 kts | 248° |
| 2026-04-26 13:53 | 53.90139 | 10.54302 | 4001 ft | 225 kts | 245° |
| 2026-04-26 13:54 | 53.89263 | 10.52114 | 4015 ft | 226 kts | 231° |
| 2026-04-26 13:54 | 53.88273 | 10.50092 | 4006 ft | 225 kts | 231° |
| 2026-04-26 13:54 | 53.87276 | 10.48047 | 4013 ft | 225 kts | 231° |
| 2026-04-26 13:55 | 53.85281 | 10.43975 | 4009 ft | 226 kts | 231° |
| 2026-04-26 13:55 | 53.84607 | 10.42601 | 4008 ft | 223 kts | 232° |
| 2026-04-26 13:55 | 53.82299 | 10.37904 | 4006 ft | 224 kts | 232° |
| 2026-04-26 13:56 | 53.81303 | 10.35883 | 3961 ft | 224 kts | 231° |
| 2026-04-26 13:56 | 53.80297 | 10.33861 | 3840 ft | 224 kts | 231° |
| 2026-04-26 13:56 | 53.79271 | 10.31875 | 3692 ft | 225 kts | 230° |
| 2026-04-26 13:56 | 53.78260 | 10.29859 | 3570 ft | 225 kts | 231° |
| 2026-04-26 13:57 | 53.77284 | 10.27868 | 3444 ft | 214 kts | 231° |
| 2026-04-26 13:57 | 53.76356 | 10.25967 | 3305 ft | 205 kts | 231° |
| 2026-04-26 13:57 | 53.75477 | 10.24166 | 3224 ft | 192 kts | 232° |
| 2026-04-26 13:57 | 53.74652 | 10.22479 | 3079 ft | 180 kts | 232° |
| 2026-04-26 13:58 | 53.73878 | 10.20896 | 2943 ft | 168 kts | 231° |
| 2026-04-26 13:58 | 53.73183 | 10.19478 | 2943 ft | 146 kts | 231° |
| 2026-04-26 13:58 | 53.72561 | 10.18208 | 2814 ft | 135 kts | 232° |
| 2026-04-26 13:58 | 53.71968 | 10.16996 | 2664 ft | 133 kts | 231° |
| 2026-04-26 13:59 | 53.71382 | 10.15799 | 2501 ft | 132 kts | 231° |
| 2026-04-26 13:59 | 53.70801 | 10.14613 | 2328 ft | 131 kts | 231° |
| 2026-04-26 13:59 | 53.70221 | 10.13430 | 2148 ft | 131 kts | 231° |
| 2026-04-26 14:00 | 53.68463 | 10.09867 | 1616 ft | 133 kts | 231° |
| 2026-04-26 14:00 | 53.67881 | 10.08665 | 1475 ft | 131 kts | 233° |
| 2026-04-26 14:00 | 53.67499 | 10.07866 | 1331 ft | 132 kts | 231° |
| 2026-04-26 14:01 | 53.66728 | 10.06303 | 1043 ft | 128 kts | 231° |
| 2026-04-26 14:01 | 53.66153 | 10.05122 | 871 ft | 131 kts | 232° |
| 2026-04-26 14:01 | 53.65565 | 10.03946 | 694 ft | 132 kts | 231° |
| 2026-04-26 14:01 | 53.64984 | 10.02753 | 544 ft | 132 kts | 232° |
| 2026-04-26 14:02 | 53.64386 | 10.01560 | 335 ft | 134 kts | 233° |
| 2026-04-26 14:02 | 53.63796 | 10.00362 | 141 ft | 132 kts | 233° |
| 2026-04-26 14:02 | 53.63238 | 9.99222 | 49 ft | 115 kts | 230° |
| 2026-04-26 14:02 | 53.62825 | 9.98390 | 45 ft | 68 kts | 230° |
| 2026-04-26 14:03 | 53.62606 | 9.97950 | 43 ft | 42 kts | 230° |
| 2026-04-26 14:03 | 53.62465 | 9.97800 | 40 ft | 17 kts | 157° |
| 2026-04-26 14:03 | 53.62429 | 9.97927 | 41 ft | 12 kts | 79° |
| 2026-04-26 14:03 | 53.62446 | 9.98082 | 41 ft | 15 kts | 80° |
| 2026-04-26 14:04 | 53.62465 | 9.98260 | 40 ft | 16 kts | 75° |
| 2026-04-26 14:04 | 53.62491 | 9.98459 | 42 ft | 18 kts | 79° |
| 2026-04-26 14:04 | 53.62516 | 9.98677 | 43 ft | 20 kts | 78° |
| 2026-04-26 14:04 | 53.62541 | 9.98897 | 44 ft | 13 kts | 80° |
| 2026-04-26 14:05 | 53.62559 | 9.99064 | 44 ft | 15 kts | 79° |
| 2026-04-26 14:05 | 53.62579 | 9.99253 | 42 ft | 18 kts | 80° |
| 2026-04-26 14:05 | 53.62602 | 9.99441 | 46 ft | 17 kts | 79° |
| 2026-04-26 14:05 | 53.62627 | 9.99663 | 46 ft | 22 kts | 79° |
| 2026-04-26 14:06 | 53.62688 | 9.99855 | 48 ft | 19 kts | 28° |
| 2026-04-26 14:06 | 53.62807 | 9.99964 | 47 ft | 19 kts | 29° |
| 2026-04-26 14:06 | 53.62787 | 10.00119 | 46 ft | 20 kts | 153° |
| 2026-04-26 14:06 | 53.62717 | 10.00178 | 46 ft | 2 kts | 152° |
| 2026-04-26 14:07 | 53.62712 | 10.00222 | 46 ft | 6 kts | 81° |
| 2026-04-26 14:07 | 53.62739 | 10.00308 | 46 ft | 10 kts | 62° |
| 2026-04-26 14:07 | 53.62741 | 10.00315 | 46 ft | 0 kts | 62° |